Meteo Giornale » Osservazioni meteo Gran Bretagna » Benson

ore: 18:20 - Osservazioni Meteo Benson
Lat. 51° 37' N Lon. 1° 5' W Alt. 63 metri s.l.m.

coperto

20 °C

Coperto

Temp. 24 Ore

13 °C

24 °C

Ovest

18.5 Km/h

Dew point 12 °C

Umidità 59 %

Visibilità  10 Km

Il sole sorge alle ore 06:15

Il sole tramonta alle ore 19:53

Data e Ora Cielo e Fenomeni T °C DP °C Um. % Pres. hPa Vis. km Vento km/h
Oggi h: 18:20 coperto Coperto 20 12 59 1015 10 O 18.5
Oggi h: 17:50 coperto Coperto 21 11 52 1015 10 O 24
Oggi h: 17:20 foschia Foschia 21 12 56 1014 10 O 16.7
Oggi h: 16:50 poco_nuvoloso Poco Nuvoloso 21 12 56 1014 10 O 22.2
Oggi h: 16:20 nuvoloso Nuvoloso 23 12 49 1014 10 O 24
Oggi h: 15:50 coperto Coperto 24 13 50 1013 10 O 20.3
Oggi h: 15:20 nuvoloso Nuvoloso 21 13 60 1013 10 O 13
Oggi h: 14:50 coperto_pioggia Pioggia 21 12 56 1013 10 O 13
Oggi h: 14:20 foschia Foschia 22 13 56 1013 2 O 18.5
Oggi h: 13:50 nuvoloso Nuvoloso 22 14 60 1012 10 O 18.5
Oggi h: 13:20 poco_nuvoloso Poco Nuvoloso 20 15 72 1012 10 O 11.1
Oggi h: 12:50 sereno Sereno 21 15 68 1012 10 O 18.5
Oggi h: 12:20 coperto_pioggia Pioviggine 18 14 77 1012 10 O 16.7
Oggi h: 11:50 coperto_pioggia Pioggia 19 13 68 1011 10 O 18.5
Oggi h: 11:20 coperto Coperto 19 13 68 1011 10 O 18.5
Oggi h: 10:50 coperto Coperto 18 14 77 1010 10 O 16.7
Oggi h: 10:20 coperto Coperto 18 13 72 1010 10 O 18.5
Oggi h: 09:50 molto_nuvoloso Molto Nuvoloso 18 14 77 1009 10 O 18.5
Oggi h: 09:20 molto_nuvoloso Molto Nuvoloso 17 13 77 1009 10 O 16.7
Oggi h: 08:50 nuvoloso Nuvoloso 17 14 82 1008 10 O 18.5
Oggi h: 08:20 poco_nuvoloso Poco Nuvoloso 16 13 82 1008 10 O/SO 14.8
Oggi h: 07:50 molto_nuvoloso Molto Nuvoloso 15 13 87 1008 10 SO 9.3
Oggi h: 07:20 nuvoloso Nuvoloso 14 13 93 1007 10 SO 9.3
Oggi h: 06:50 sereno Sereno 13 12 93 1007 10 S/SO 7.4
Oggi h: 06:20 poco_nuvoloso Poco Nuvoloso 13 12 93 1006 10 SO 7.4
Oggi h: 05:50 molto_nuvoloso Molto Nuvoloso 13 12 93 1006 10 SO 11.1
Oggi h: 05:20 molto_nuvoloso Molto Nuvoloso 13 12 93 1006 10 SO 13
Oggi h: 04:50 poco_nuvoloso Poco Nuvoloso 13 11 87 1005 10 SO 13
Oggi h: 04:20 coperto Coperto 14 11 82 1005 10 SO 13
Oggi h: 03:50 coperto_pioggia Pioggia 14 12 87 1005 10 SO 13
Oggi h: 03:20 poco_nuvoloso Poco Nuvoloso 15 12 82 1005 10 SO 16.7
Oggi h: 02:50 poco_nuvoloso Poco Nuvoloso 15 13 87 1004 10 SO 14.8
Oggi h: 02:20 molto_nuvoloso Molto Nuvoloso 15 13 87 1004 10 S/SO 14.8
Oggi h: 01:50 molto_nuvoloso Molto Nuvoloso 15 14 93 1004 10 S 13
Oggi h: 01:20 poco_nuvoloso Poco Nuvoloso 15 14 93 1004 10 S 18.5
Oggi h: 00:50 coperto_pioggia Pioggia 15 14 93 1004 10 S 20.3
Oggi h: 00:20 coperto_pioggia Pioggia 16 14 87 1004 10 S 18.5
Ieri h: 23:50 nuvoloso Nuvoloso 16 14 87 1005 10 S 24
Ieri h: 23:20 nuvoloso Nuvoloso 16 14 87 1005 10 S 20.3
Ieri h: 22:50 coperto_pioggia Pioviggine 16 14 87 1005 10 S 20.3
Ieri h: 22:20 nuvoloso Nuvoloso 16 14 87 1005 10 S/SO 20.3
Ieri h: 21:50 coperto_pioggia Pioggia 16 14 87 1005 10 S/SO 16.7
Ieri h: 21:20 molto_nuvoloso Molto Nuvoloso 17 14 82 1005 10 S 18.5
Ieri h: 20:50 coperto_pioggia Pioggia 17 14 82 1005 10 S 18.5
Ieri h: 20:20 coperto_pioggia Pioggia 18 14 77 1006 10 S 24
Ieri h: 19:50 molto_nuvoloso Molto Nuvoloso 19 13 68 1006 10 S 27.8